Time;durP1;ratioP1;P1;durP2;ratioP2;P2;SDS_P1;SDS_P2;PMS_P1;PMS_P2;Temp;Humidity;BMP_temperature;BMP_pressure;BME280_temperature;BME280_humidity;BME280_pressure;Samples;Min_cycle;Max_cycle;Signal;HPM_P1;HPM_P2
2023/04/21 00:01:48;;;;;;;1999.90;999.90;;;;;;;9.79;100.00;97809.03;5136863;28;20035;-84
2023/04/21 00:04:14;;;;;;;1999.90;999.90;;;;;;;9.76;100.00;97789.69;5136748;28;20091;-84
2023/04/21 00:06:40;;;;;;;1999.90;999.90;;;;;;;9.82;100.00;97802.19;5136281;28;20027;-82
2023/04/21 00:09:07;;;;;;;1999.90;999.90;;;;;;;9.80;100.00;97799.75;5137794;27;20026;-86
2023/04/21 00:11:32;;;;;;;1999.90;999.90;;;;;;;9.69;100.00;97790.88;5153633;27;20039;-85
2023/04/21 00:13:57;;;;;;;1999.90;999.90;;;;;;;9.75;100.00;97793.53;5155226;27;20046;-84
2023/04/21 00:16:23;;;;;;;1999.90;999.90;;;;;;;9.73;100.00;97782.91;5135084;27;20029;-83
2023/04/21 00:18:48;;;;;;;1999.90;999.90;;;;;;;9.75;100.00;97786.16;5154377;27;20046;-85
2023/04/21 00:21:15;;;;;;;1999.90;999.90;;;;;;;9.74;100.00;97776.34;5134544;27;20011;-85
2023/04/21 00:23:40;;;;;;;1999.90;999.90;;;;;;;9.82;100.00;97783.06;5152674;27;20467;-89
2023/04/21 00:26:06;;;;;;;1999.90;999.90;;;;;;;9.79;100.00;97778.19;5137178;27;20114;-90
2023/04/21 00:28:31;;;;;;;1999.90;999.90;;;;;;;9.68;100.00;97767.38;5154397;27;20031;-89
2023/04/21 00:30:56;;;;;;;1999.90;999.90;;;;;;;9.78;100.00;97776.53;5155377;27;20023;-87
2023/04/21 00:33:22;;;;;;;1999.90;999.90;;;;;;;9.70;100.00;97758.91;5136088;27;20016;-91
2023/04/21 00:35:47;;;;;;;1999.90;999.90;;;;;;;9.73;100.00;97763.78;5137972;27;20023;-89
2023/04/21 00:38:12;;;;;;;1999.90;999.90;;;;;;;9.62;100.00;97763.09;5156571;27;20038;-87
2023/04/21 00:40:38;;;;;;;1999.90;999.90;;;;;;;9.53;100.00;97753.13;5155734;27;20014;-88
2023/04/21 00:43:06;;;;;;;1999.90;999.90;;;;;;;9.60;100.00;97762.59;5150776;27;20043;-88
2023/04/21 00:45:32;;;;;;;1999.90;999.90;;;;;;;9.64;100.00;97769.09;5152135;27;20031;-87
2023/04/21 00:47:58;;;;;;;1999.90;999.90;;;;;;;9.61;100.00;97761.50;5156380;27;20035;-89
2023/04/21 00:50:24;;;;;;;1999.90;999.90;;;;;;;9.52;100.00;97765.19;5155540;27;20027;-82
2023/04/21 00:52:49;;;;;;;1999.90;999.90;;;;;;;9.54;100.00;97761.03;5156073;27;20011;-88
2023/04/21 00:55:21;;;;;;;1999.90;999.90;;;;;;;9.47;100.00;97766.03;5158607;27;20011;-89
2023/04/21 00:57:47;;;;;;;1999.90;999.90;;;;;;;9.42;100.00;97771.56;5140222;27;20023;-87
2023/04/21 01:00:14;;;;;;;1999.90;999.90;;;;;;;9.46;100.00;97769.88;5158001;27;20021;-87
2023/04/21 01:02:40;;;;;;;1999.90;999.90;;;;;;;9.46;100.00;97775.31;5138729;27;20120;-84
2023/04/21 01:05:08;;;;;;;1999.90;999.90;;;;;;;9.49;100.00;97776.69;5157182;27;20015;-82
2023/04/21 01:07:35;;;;;;;1999.90;999.90;;;;;;;9.57;100.00;97776.84;5156671;27;20038;-85
2023/04/21 01:10:00;;;;;;;1999.90;999.90;;;;;;;9.55;100.00;97770.06;5157346;27;20112;-84
2023/04/21 01:12:26;;;;;;;1999.90;999.90;;;;;;;9.47;100.00;97754.31;5157166;27;20015;-85
2023/04/21 01:14:51;;;;;;;1999.90;999.90;;;;;;;9.45;100.00;97754.63;5142088;27;20035;-84
2023/04/21 01:17:17;;;;;;;1999.90;999.90;;;;;;;9.46;100.00;97758.16;5136845;28;20028;-88
2023/04/21 01:19:44;;;;;;;1999.90;999.90;;;;;;;9.42;100.00;97755.19;5136371;28;20006;-85
2023/04/21 01:22:11;;;;;;;1999.90;999.90;;;;;;;9.38;100.00;97756.88;5135923;28;20004;-86
2023/04/21 01:24:45;;;;;;;1999.90;999.90;;;;;;;9.29;100.00;97755.09;5136096;28;20034;-83
2023/04/21 01:27:13;;;;;;;1999.90;999.90;;;;;;;9.25;100.00;97752.13;5134679;28;20028;-91
2023/04/21 01:29:40;;;;;;;1999.90;999.90;;;;;;;9.20;100.00;97743.19;5116620;28;20054;-85
2023/04/21 01:32:11;;;;;;;1999.90;999.90;;;;;;;9.28;100.00;97756.19;5134146;28;20038;-87
2023/04/21 01:34:38;;;;;;;1999.90;999.90;;;;;;;9.22;100.00;97762.81;5134622;28;20031;-89
2023/04/21 01:37:17;;;;;;;1999.90;999.90;;;;;;;9.27;100.00;97760.03;5135395;28;20083;-82
2023/04/21 01:39:53;;;;;;;1999.90;999.90;;;;;;;9.31;100.00;97756.41;5137195;28;20014;-88
2023/04/21 01:42:20;;;;;;;1999.90;999.90;;;;;;;9.30;100.00;97754.81;5136797;28;20111;-90
2023/04/21 01:44:48;;;;;;;1999.90;999.90;;;;;;;9.34;100.00;97750.38;5134556;28;20058;-89
2023/04/21 01:47:14;;;;;;;1999.90;999.90;;;;;;;9.43;100.00;97756.81;5135452;28;20030;-90
2023/04/21 01:49:39;;;;;;;1999.90;999.90;;;;;;;9.35;100.00;97748.47;5134900;28;20024;-86
2023/04/21 01:52:04;;;;;;;1999.90;999.90;;;;;;;9.31;100.00;97761.06;5135491;28;20079;-88
2023/04/21 01:54:58;;;;;;;1999.90;999.90;;;;;;;9.31;100.00;97761.88;5135337;28;20091;-88
2023/04/21 01:57:24;;;;;;;1999.90;999.90;;;;;;;9.33;100.00;97737.03;5134970;28;20003;-84
2023/04/21 01:59:49;;;;;;;1999.90;999.90;;;;;;;9.32;100.00;97755.31;5134954;28;20045;-86
2023/04/21 02:02:15;;;;;;;1999.90;999.90;;;;;;;9.34;100.00;97755.84;5138226;28;20027;-87
2023/04/21 02:04:40;;;;;;;1999.90;999.90;;;;;;;9.26;100.00;97742.84;5139086;28;20019;-87
2023/04/21 02:07:05;;;;;;;1999.90;999.90;;;;;;;9.15;100.00;97742.16;5139228;28;20035;-85
2023/04/21 02:09:33;;;;;;;1999.90;999.90;;;;;;;9.24;100.00;97741.53;5138688;28;20050;-89
2023/04/21 02:11:59;;;;;;;1999.90;999.90;;;;;;;9.28;100.00;97745.25;5135965;28;20065;-83
2023/04/21 02:14:25;;;;;;;1999.90;999.90;;;;;;;9.25;100.00;97752.13;5135971;28;20028;-84
2023/04/21 02:16:50;;;;;;;1999.90;999.90;;;;;;;9.17;100.00;97741.06;5138102;28;20069;-88
2023/04/21 02:19:15;;;;;;;1999.90;999.90;;;;;;;9.12;100.00;97733.72;5138099;28;20031;-90
2023/04/21 02:21:41;;;;;;;1999.90;999.90;;;;;;;9.15;100.00;97741.31;5137727;28;20031;-89
2023/04/21 02:24:06;;;;;;;1999.90;999.90;;;;;;;9.15;100.00;97744.06;5138842;28;20016;-87
2023/04/21 02:26:32;;;;;;;1999.90;999.90;;;;;;;9.16;100.00;97737.50;5139659;28;20043;-82
2023/04/21 02:28:57;;;;;;;1999.90;999.90;;;;;;;9.23;100.00;97737.97;5137668;28;20027;-83
2023/04/21 02:31:22;;;;;;;1999.90;999.90;;;;;;;9.29;100.00;97735.97;5139942;28;20047;-87
2023/04/21 02:33:48;;;;;;;1999.90;999.90;;;;;;;9.28;100.00;97740.63;5121338;28;20027;-83
2023/04/21 02:36:13;;;;;;;1999.90;999.90;;;;;;;9.23;100.00;97734.44;5138009;28;20008;-83
2023/04/21 02:38:39;;;;;;;1999.90;999.90;;;;;;;9.12;100.00;97725.53;5138857;28;20050;-82
2023/04/21 02:41:04;;;;;;;1999.90;999.90;;;;;;;9.17;100.00;97732.88;5138134;28;20114;-82
2023/04/21 02:43:30;;;;;;;1999.90;999.90;;;;;;;9.20;100.00;97724.91;5136811;28;20019;-84
2023/04/21 02:45:55;;;;;;;1999.90;999.90;;;;;;;9.18;100.00;97735.28;5137818;28;20084;-85
2023/04/21 02:48:23;;;;;;;1999.90;999.90;;;;;;;9.08;100.00;97727.25;5137265;28;20008;-83
2023/04/21 02:50:49;;;;;;;1999.90;999.90;;;;;;;9.05;100.00;97725.09;5138529;28;20114;-87
2023/04/21 02:53:15;;;;;;;1999.90;999.90;;;;;;;9.03;100.00;97721.84;5138173;28;20047;-85
2023/04/21 02:55:41;;;;;;;1999.90;999.90;;;;;;;8.99;100.00;97720.81;5155203;27;20007;-88
2023/04/21 02:58:06;;;;;;;1999.90;999.90;;;;;;;8.95;100.00;97725.22;5138870;28;20061;-83
2023/04/21 03:00:32;;;;;;;1999.90;999.90;;;;;;;8.97;100.00;97723.00;5121311;28;20008;-83
2023/04/21 03:02:57;;;;;;;1999.90;999.90;;;;;;;8.86;100.00;97716.88;5138851;28;20016;-84
2023/04/21 03:05:23;;;;;;;1999.90;999.90;;;;;;;8.86;100.00;97726.97;5138750;28;20031;-84
2023/04/21 03:07:48;;;;;;;1999.90;999.90;;;;;;;8.83;100.00;97727.53;5121855;28;20022;-83
2023/04/21 03:10:14;;;;;;;1999.90;999.90;;;;;;;8.77;100.00;97725.97;5138093;28;20066;-85
2023/04/21 03:12:39;;;;;;;1999.90;999.90;;;;;;;8.81;100.00;97729.72;5131318;28;20036;-86
2023/04/21 03:15:05;;;;;;;1999.90;999.90;;;;;;;8.63;100.00;97727.75;5126965;28;20061;-88
2023/04/21 03:17:31;;;;;;;1999.90;999.90;;;;;;;8.61;100.00;97737.00;5139548;27;20036;-91
2023/04/21 03:19:56;;;;;;;1999.90;999.90;;;;;;;8.55;100.00;97721.81;5142606;27;20030;-86
2023/04/21 03:22:21;;;;;;;1999.90;999.90;;;;;;;8.51;100.00;97736.31;5122237;27;20019;-85
2023/04/21 03:24:47;;;;;;;1999.90;999.90;;;;;;;8.50;100.00;97729.22;5141687;27;20054;-86
2023/04/21 03:27:12;;;;;;;1999.90;999.90;;;;;;;8.66;100.00;97735.34;5141812;27;20031;-88
2023/04/21 03:29:37;;;;;;;1999.90;999.90;;;;;;;8.58;100.00;97737.59;5142039;27;20091;-89
2023/04/21 03:32:03;;;;;;;1999.90;999.90;;;;;;;8.54;100.00;97731.09;5139054;27;20379;-91
2023/04/21 03:34:28;;;;;;;1999.90;999.90;;;;;;;8.52;100.00;97727.84;5138416;27;20023;-90
2023/04/21 03:36:54;;;;;;;1999.90;999.90;;;;;;;8.51;100.00;97736.31;5139595;27;20031;-86
2023/04/21 03:39:20;;;;;;;1999.90;999.90;;;;;;;8.51;100.00;97726.22;5139946;27;20023;-87
2023/04/21 03:41:46;;;;;;;1999.90;999.90;;;;;;;8.42;100.00;97729.88;5140332;27;20023;-90
2023/04/21 03:44:11;;;;;;;1999.90;999.90;;;;;;;8.45;100.00;97732.84;5138888;27;20049;-89
2023/04/21 03:46:36;;;;;;;1999.90;999.90;;;;;;;8.46;100.00;97733.63;5136035;27;20126;-87
2023/04/21 03:49:02;;;;;;;1999.90;999.90;;;;;;;8.48;100.00;97732.25;5136249;27;20030;-85
2023/04/21 03:51:27;;;;;;;1999.90;999.90;;;;;;;8.44;100.00;97733.91;5135948;27;20077;-87
2023/04/21 03:53:53;;;;;;;1999.90;999.90;;;;;;;8.41;100.00;97733.69;5136381;27;20038;-87
2023/04/21 03:56:18;;;;;;;1999.90;999.90;;;;;;;8.42;100.00;97733.41;5138233;27;20030;-88
2023/04/21 03:58:44;;;;;;;1999.90;999.90;;;;;;;8.49;100.00;97736.59;5139972;27;20019;-82
2023/04/21 04:01:09;;;;;;;1999.90;999.90;;;;;;;8.52;100.00;97748.84;5135620;27;20077;-87
2023/04/21 04:03:35;;;;;;;1999.90;999.90;;;;;;;8.46;100.00;97750.78;5134749;27;20023;-86
2023/04/21 04:06:02;;;;;;;1999.90;999.90;;;;;;;8.44;100.00;97750.28;5134771;27;20015;-88
2023/04/21 04:08:28;;;;;;;1999.90;999.90;;;;;;;8.41;100.00;97734.50;5116970;27;20499;-85
2023/04/21 04:10:54;;;;;;;1999.90;999.90;;;;;;;8.42;100.00;97741.59;5134276;27;20050;-81
2023/04/21 04:13:21;;;;;;;1999.90;999.90;;;;;;;8.40;100.00;97741.03;5119308;27;20514;-84
2023/04/21 04:15:46;;;;;;;1999.90;999.90;;;;;;;8.35;100.00;97737.56;5111555;28;20042;-80
2023/04/21 04:18:12;;;;;;;1999.90;999.90;;;;;;;8.40;100.00;97745.66;5113766;28;20016;-82
2023/04/21 04:20:37;;;;;;;1999.90;999.90;;;;;;;8.48;100.00;97743.16;5132343;27;20817;-87
2023/04/21 04:23:03;;;;;;;1999.90;999.90;;;;;;;8.52;100.00;97754.31;5134945;27;20027;-84
2023/04/21 04:25:28;;;;;;;1999.90;999.90;;;;;;;8.65;100.00;97750.88;5135708;27;20038;-90
2023/04/21 04:27:56;;;;;;;1999.90;999.90;;;;;;;8.74;100.00;97749.16;5136399;27;20034;-87
2023/04/21 04:30:22;;;;;;;1999.90;999.90;;;;;;;8.86;100.00;97759.69;5137971;27;20023;-85
2023/04/21 04:32:48;;;;;;;1999.90;999.90;;;;;;;8.96;100.00;97765.00;5132963;27;20058;-81
2023/04/21 04:35:14;;;;;;;1999.90;999.90;;;;;;;9.00;100.00;97749.69;5114318;27;20063;-85
2023/04/21 04:37:40;;;;;;;1999.90;999.90;;;;;;;9.18;100.00;97762.56;5134388;27;20044;-89
2023/04/21 04:40:09;;;;;;;1999.90;999.90;;;;;;;9.21;100.00;97762.00;5133943;27;20019;-80
2023/04/21 04:42:35;;;;;;;1999.90;999.90;;;;;;;9.38;100.00;97762.34;5133717;27;20106;-85
2023/04/21 04:45:01;;;;;;;1999.90;999.90;;;;;;;9.51;100.00;97756.16;5133323;27;20026;-84
2023/04/21 04:47:27;;;;;;;1999.90;999.90;;;;;;;9.69;100.00;97771.75;5132754;27;20093;-83
2023/04/21 04:49:53;;;;;;;1999.90;999.90;;;;;;;9.79;100.00;97776.28;5132785;27;20035;-86
2023/04/21 04:52:18;;;;;;;1999.90;999.90;;;;;;;9.79;100.00;97781.72;5134233;27;20487;-85
2023/04/21 04:54:44;;;;;;;1999.90;999.90;;;;;;;9.86;100.00;97778.63;5136127;27;20380;-85
2023/04/21 04:57:09;;;;;;;1999.90;999.90;;;;;;;9.86;100.00;97781.38;5147322;27;20050;-85
2023/04/21 04:59:35;;;;;;;1999.90;999.90;;;;;;;9.94;100.00;97780.69;5139556;27;20109;-75
2023/04/21 05:02:01;;;;;;;1999.90;999.90;;;;;;;9.95;100.00;97785.06;5131478;27;20395;-75
2023/04/21 05:04:27;;;;;;;1999.90;999.90;;;;;;;10.11;100.00;97786.47;5131558;27;20023;-75
2023/04/21 05:06:52;;;;;;;1999.90;999.90;;;;;;;10.13;100.00;97796.00;5135089;27;20026;-76
2023/04/21 05:09:17;;;;;;;1999.90;999.90;;;;;;;10.10;100.00;97788.38;5131859;27;21335;-75
2023/04/21 05:11:43;;;;;;;1999.90;999.90;;;;;;;10.19;100.00;97794.00;5135452;27;20019;-75
2023/04/21 05:14:08;;;;;;;1999.90;999.90;;;;;;;10.32;100.00;97796.00;5133149;27;20152;-76
2023/04/21 05:16:33;;;;;;;1999.90;999.90;;;;;;;10.39;100.00;97803.81;5135796;27;20395;-77
2023/04/21 05:19:03;;;;;;;1999.90;999.90;;;;;;;10.41;100.00;97796.94;5135295;27;20034;-75
2023/04/21 05:21:28;;;;;;;1999.90;999.90;;;;;;;10.48;100.00;97796.56;5131242;27;20027;-75
2023/04/21 05:23:58;;;;;;;1999.90;999.90;;;;;;;10.53;100.00;97804.69;5130876;27;20038;-76
2023/04/21 05:26:26;;;;;;;1999.90;999.90;;;;;;;10.43;100.00;97808.38;5112914;27;20443;-74
2023/04/21 05:28:52;;;;;;;1999.90;999.90;;;;;;;10.40;100.00;97800.78;5130101;27;20030;-75
2023/04/21 05:31:17;;;;;;;1999.90;999.90;;;;;;;10.65;100.00;97816.78;5129844;27;20031;-76
2023/04/21 05:33:42;;;;;;;1999.90;999.90;;;;;;;10.85;100.00;97817.53;5130744;27;20026;-75
2023/04/21 05:36:09;;;;;;;1999.90;999.90;;;;;;;10.88;100.00;97806.00;5130641;27;20464;-75
2023/04/21 05:38:35;;;;;;;1999.90;999.90;;;;;;;10.80;100.00;97807.50;5130940;27;20023;-74
2023/04/21 05:41:01;;;;;;;1999.90;999.90;;;;;;;10.98;100.00;97806.63;5130421;27;20420;-75
2023/04/21 05:43:27;;;;;;;1999.90;999.90;;;;;;;10.99;100.00;97821.94;5131307;27;20031;-76
2023/04/21 05:45:52;;;;;;;1999.90;999.90;;;;;;;11.02;100.00;97824.09;5131690;27;20106;-75
2023/04/21 05:48:17;;;;;;;1999.90;999.90;;;;;;;11.27;100.00;97820.88;5131713;27;20031;-77
2023/04/21 05:50:43;;;;;;;1999.90;999.90;;;;;;;11.47;100.00;97814.16;5141817;27;20027;-84
2023/04/21 05:53:08;;;;;;;1999.90;999.90;;;;;;;11.57;100.00;97824.94;5135631;27;20023;-83
2023/04/21 05:55:35;;;;;;;1999.90;999.90;;;;;;;11.82;100.00;97820.88;5156868;27;20018;-84
2023/04/21 05:58:00;;;;;;;1999.90;999.90;;;;;;;11.77;100.00;97824.56;5151828;27;20119;-86
2023/04/21 06:00:25;;;;;;;1999.90;999.90;;;;;;;12.23;100.00;97820.78;5151509;27;20023;-76
2023/04/21 06:02:51;;;;;;;1999.90;999.90;;;;;;;12.40;100.00;97825.63;5137024;27;20105;-89
2023/04/21 06:05:17;;;;;;;1999.90;999.90;;;;;;;12.54;100.00;97831.88;5158567;27;20540;-90
2023/04/21 06:07:42;;;;;;;1999.90;999.90;;;;;;;12.66;100.00;97823.88;5140485;27;20075;-87
2023/04/21 06:10:08;;;;;;;1999.90;999.90;;;;;;;12.66;100.00;97813.72;5138633;27;20143;-85
2023/04/21 06:12:34;;;;;;;1999.90;999.90;;;;;;;12.61;100.00;97824.84;5153939;27;20030;-83
2023/04/21 06:15:00;;;;;;;1999.90;999.90;;;;;;;12.66;100.00;97821.94;5153968;27;20109;-82
2023/04/21 06:17:26;;;;;;;1999.90;999.90;;;;;;;12.57;100.00;97825.75;5135282;27;20077;-84
2023/04/21 06:19:54;;;;;;;1999.90;999.90;;;;;;;12.17;100.00;97831.06;5152958;27;20027;-82
2023/04/21 06:22:23;;;;;;;1999.90;999.90;;;;;;;11.90;100.00;97827.59;5152367;27;20558;-84
2023/04/21 06:24:49;;;;;;;1999.90;999.90;;;;;;;12.14;100.00;97828.13;5152696;27;20027;-88
2023/04/21 06:27:15;;;;;;;1999.90;999.90;;;;;;;12.25;100.00;97835.81;5152773;27;20033;-83
2023/04/21 06:29:44;;;;;;;1999.90;999.90;;;;;;;12.33;100.00;97831.53;5153302;27;20023;-86
2023/04/21 06:32:10;;;;;;;1999.90;999.90;;;;;;;12.32;100.00;97840.88;5153460;27;20490;-84
2023/04/21 06:34:37;;;;;;;1999.90;999.90;;;;;;;12.09;100.00;97839.22;5152917;27;20023;-85
2023/04/21 06:37:02;;;;;;;1999.90;999.90;;;;;;;12.16;100.00;97842.34;5152544;27;20034;-82
2023/04/21 06:39:28;;;;;;;1999.90;999.90;;;;;;;12.19;100.00;97828.81;5134426;27;20030;-87
2023/04/21 06:41:53;;;;;;;1999.90;999.90;;;;;;;12.20;100.00;97837.88;5152885;27;20492;-85
2023/04/21 06:44:19;;;;;;;1999.90;999.90;;;;;;;12.06;100.00;97828.88;5152856;27;20547;-86
2023/04/21 06:46:45;;;;;;;1999.90;999.90;;;;;;;11.82;100.00;97832.66;5152948;27;20113;-83
2023/04/21 06:49:11;;;;;;;1999.90;999.90;;;;;;;11.95;100.00;97832.94;5156824;27;20137;-81
2023/04/21 06:51:36;;;;;;;1999.90;999.90;;;;;;;11.78;100.00;97834.38;5138281;27;20553;-84
2023/04/21 06:54:02;;;;;;;1999.90;999.90;;;;;;;11.78;100.00;97830.81;5156466;27;20018;-86
2023/04/21 06:56:28;;;;;;;1999.90;999.90;;;;;;;11.80;100.00;97812.16;5157087;27;20031;-89
2023/04/21 06:58:53;;;;;;;1999.90;999.90;;;;;;;11.74;100.00;97829.84;5138146;27;20105;-86
2023/04/21 07:01:19;;;;;;;1999.90;999.90;;;;;;;11.41;100.00;97804.44;5156479;27;20075;-78
2023/04/21 07:03:45;;;;;;;1999.90;999.90;;;;;;;11.69;100.00;97833.44;5137610;27;20026;-83
2023/04/21 07:06:11;;;;;;;1999.90;999.90;;;;;;;11.83;100.00;97833.47;5158382;27;20037;-83
2023/04/21 07:08:37;;;;;;;1999.90;999.90;;;;;;;11.90;100.00;97827.59;5139947;27;20027;-85
2023/04/21 07:11:03;;;;;;;1999.90;999.90;;;;;;;11.76;100.00;97836.63;5157088;27;20046;-87
2023/04/21 07:13:28;;;;;;;1999.90;999.90;;;;;;;11.87;100.00;97833.69;5157188;27;20027;-87
2023/04/21 07:15:54;;;;;;;1999.90;999.90;;;;;;;11.26;100.00;97830.19;5157431;27;20530;-88
2023/04/21 07:18:19;;;;;;;1999.90;999.90;;;;;;;11.31;100.00;97829.28;5157896;27;20090;-85
2023/04/21 07:20:45;;;;;;;1999.90;999.90;;;;;;;11.31;100.00;97834.75;5142066;27;20109;-85
2023/04/21 07:23:10;;;;;;;1999.90;999.90;;;;;;;11.46;100.00;97839.97;5159592;27;20030;-80
2023/04/21 07:25:36;;;;;;;1999.90;999.90;;;;;;;11.69;100.00;97843.59;5165222;27;20027;-80
2023/04/21 07:28:02;;;;;;;1999.90;999.90;;;;;;;11.50;100.00;97838.22;5158640;27;20034;-78
2023/04/21 07:30:28;;;;;;;1999.90;999.90;;;;;;;11.64;100.00;97836.31;5156726;27;20027;-77
2023/04/21 07:32:54;;;;;;;1999.90;999.90;;;;;;;11.68;100.00;97847.47;5156210;27;20033;-78
2023/04/21 07:35:19;;;;;;;1999.90;999.90;;;;;;;11.85;100.00;97847.66;5156659;27;20109;-79
2023/04/21 07:37:45;;;;;;;1999.90;999.90;;;;;;;12.06;100.00;97842.59;5156139;27;20472;-77
2023/04/21 07:40:10;;;;;;;1999.90;999.90;;;;;;;12.17;100.00;97843.97;5155322;27;20030;-79
2023/04/21 07:42:36;;;;;;;1999.90;999.90;;;;;;;12.29;100.00;97841.50;5154668;27;20828;-79
2023/04/21 07:45:02;;;;;;;1999.90;999.90;;;;;;;12.13;100.00;97834.72;5154509;27;20096;-80
2023/04/21 07:47:28;;;;;;;1999.90;999.90;;;;;;;12.17;100.00;97838.50;5135780;27;20124;-80
2023/04/21 07:49:53;;;;;;;1999.90;999.90;;;;;;;12.35;100.00;97834.78;5154495;27;20878;-77
2023/04/21 07:52:18;;;;;;;1999.90;999.90;;;;;;;12.44;100.00;97845.81;5135864;27;20390;-79
2023/04/21 07:54:44;;;;;;;1999.90;999.90;;;;;;;12.53;100.00;97850.25;5154635;27;20030;-76
2023/04/21 07:57:09;;;;;;;1999.90;999.90;;;;;;;12.58;100.00;97844.66;5135790;27;20030;-77
2023/04/21 07:59:35;;;;;;;1999.90;999.90;;;;;;;12.86;100.00;97843.41;5153367;27;20022;-79
2023/04/21 08:02:00;;;;;;;1999.90;999.90;;;;;;;12.55;100.00;97817.84;5154550;27;20490;-82
2023/04/21 08:04:26;;;;;;;1999.90;999.90;;;;;;;12.98;100.00;97833.78;5154432;27;20030;-79
2023/04/21 08:06:52;;;;;;;1999.90;999.90;;;;;;;13.15;100.00;97843.00;5135798;27;20144;-82
2023/04/21 08:09:17;;;;;;;1999.90;999.90;;;;;;;13.29;100.00;97848.38;5154007;27;20034;-81
2023/04/21 08:11:42;;;;;;;1999.90;999.90;;;;;;;13.43;100.00;97849.09;5154553;27;20018;-78
2023/04/21 08:14:11;;;;;;;1999.90;999.90;;;;;;;14.14;100.00;97842.38;5135727;27;20077;-82
2023/04/21 08:16:40;;;;;;;1999.90;999.90;;;;;;;14.39;100.00;97847.13;5153996;27;20035;-78
2023/04/21 08:19:07;;;;;;;1999.90;999.90;;;;;;;14.12;100.00;97852.09;5154370;27;20110;-81
2023/04/21 08:21:32;;;;;;;1999.90;999.90;;;;;;;14.71;100.00;97856.88;5154273;27;20034;-80
2023/04/21 08:23:58;;;;;;;1999.90;999.90;;;;;;;14.69;100.00;97852.81;5154559;27;20026;-85
2023/04/21 08:26:24;;;;;;;1999.90;999.90;;;;;;;15.24;100.00;97848.19;5154797;27;20026;-85
2023/04/21 08:28:50;;;;;;;1999.90;999.90;;;;;;;15.59;100.00;97856.38;5154492;27;20463;-80
2023/04/21 08:31:16;;;;;;;1999.90;999.90;;;;;;;15.56;100.00;97855.09;5135956;27;20030;-81
2023/04/21 08:33:42;;;;;;;1999.90;999.90;;;;;;;15.67;100.00;97859.09;5154247;27;20034;-80
2023/04/21 08:36:08;;;;;;;1999.90;999.90;;;;;;;16.09;100.00;97857.28;5154083;27;20027;-83
2023/04/21 08:38:34;;;;;;;1999.90;999.90;;;;;;;16.66;100.00;97846.53;5153850;27;20026;-84
2023/04/21 08:41:00;;;;;;;1999.90;999.90;;;;;;;17.43;100.00;97856.03;5135752;27;20019;-81
2023/04/21 08:43:36;;;;;;;1999.90;999.90;;;;;;;18.41;100.00;97846.63;5155130;27;20531;-86
2023/04/21 08:46:08;;;;;;;1999.90;999.90;;;;;;;18.38;86.70;97847.34;5154976;27;20513;-77
2023/04/21 08:48:39;;;;;;;1999.90;999.90;;;;;;;17.77;86.32;97850.09;5154268;27;20038;-78
2023/04/21 08:51:09;;;;;;;1999.90;999.90;;;;;;;17.37;84.82;97855.44;5135193;27;20019;-78
2023/04/21 08:53:40;;;;;;;1999.90;999.90;;;;;;;16.97;85.72;97844.16;5112649;28;20400;-81
2023/04/21 08:56:06;;;;;;;1999.90;999.90;;;;;;;17.28;83.04;97849.19;5094031;28;20042;-79
2023/04/21 08:58:31;;;;;;;1999.90;999.90;;;;;;;17.39;81.71;97844.03;5113259;28;20487;-79
2023/04/21 09:00:57;;;;;;;1999.90;999.90;;;;;;;17.81;80.04;97847.47;5113185;28;20050;-79
2023/04/21 09:03:27;;;;;;;1999.90;999.90;;;;;;;17.87;77.91;97841.38;5112750;28;20011;-80
2023/04/21 09:06:08;;;;;;;1999.90;999.90;;;;;;;17.63;77.55;97850.47;5113171;28;20016;-84
2023/04/21 09:08:37;;;;;;;1999.90;999.90;;;;;;;17.87;73.24;97810.91;5112666;28;20388;-82
2023/04/21 09:11:05;;;;;;;1999.90;999.90;;;;;;;19.26;69.13;97833.31;5093720;28;20081;-81
2023/04/21 09:13:33;;;;;;;1999.90;999.90;;;;;;;19.85;64.82;97816.66;5112552;28;20464;-82
2023/04/21 09:15:59;;;;;;;1999.90;999.90;;;;;;;19.94;63.25;97838.66;5112792;28;20023;-82
2023/04/21 09:18:34;;;;;;;1999.90;999.90;;;;;;;19.60;64.50;97841.00;5112709;28;20519;-85
2023/04/21 09:21:17;;;;;;;1999.90;999.90;;;;;;;19.23;65.36;97800.75;5112658;28;20042;-82
2023/04/21 09:23:43;;;;;;;1999.90;999.90;;;;;;;20.68;61.88;97845.97;5112826;28;20023;-81
2023/04/21 09:26:12;;;;;;;1999.90;999.90;;;;;;;20.66;60.93;97817.75;5112592;28;20027;-79
2023/04/21 09:28:45;;;;;;;1999.90;999.90;;;;;;;21.29;59.41;97844.13;5094158;28;20074;-83
2023/04/21 09:31:23;;;;;;;1999.90;999.90;;;;;;;21.21;60.41;97845.16;5097604;28;20491;-83
2023/04/21 09:33:51;;;;;;;1999.90;999.90;;;;;;;21.28;59.49;97838.91;5117399;28;20031;-86
2023/04/21 09:36:19;;;;;;;1999.90;999.90;;;;;;;22.12;54.67;97845.22;5111814;28;20031;-80
2023/04/21 09:38:56;;;;;;;1999.90;999.90;;;;;;;21.63;56.62;97838.78;5112235;28;20174;-79
2023/04/21 09:41:22;;;;;;;1999.90;999.90;;;;;;;20.26;59.81;97846.66;5097552;28;20476;-83
2023/04/21 09:43:47;;;;;;;1999.90;999.90;;;;;;;20.28;59.91;97835.16;5096929;28;20027;-85
2023/04/21 09:46:15;;;;;;;1999.90;999.90;;;;;;;20.03;61.61;97837.31;5112677;28;20024;-82
2023/04/21 09:48:43;;;;;;;1999.90;999.90;;;;;;;19.43;63.21;97826.66;5112258;28;20131;-84
2023/04/21 09:51:11;;;;;;;1999.90;999.90;;;;;;;19.40;63.74;97828.16;5111747;28;20096;-83
2023/04/21 09:53:39;;;;;;;1999.90;999.90;;;;;;;19.18;64.12;97828.72;5111548;28;20081;-80
2023/04/21 09:56:09;;;;;;;1999.90;999.90;;;;;;;18.89;65.98;97829.88;5093754;28;20058;-82
2023/04/21 09:58:40;;;;;;;1999.90;999.90;;;;;;;19.04;64.67;97820.84;5093701;28;20488;-79
2023/04/21 10:01:07;;;;;;;1999.90;999.90;;;;;;;18.85;64.99;97823.44;5111753;28;20031;-82
2023/04/21 10:03:37;;;;;;;1999.90;999.90;;;;;;;18.95;63.98;97819.38;5112750;28;20019;-78
2023/04/21 10:06:03;;;;;;;1999.90;999.90;;;;;;;18.76;64.33;97824.75;5112122;28;20028;-82
2023/04/21 10:08:28;;;;;;;1999.90;999.90;;;;;;;18.11;65.38;97816.44;5094833;28;20043;-87
2023/04/21 10:10:54;;;;;;;1999.90;999.90;;;;;;;18.70;63.50;97821.44;5116123;28;20059;-82
2023/04/21 10:13:21;;;;;;;1999.90;999.90;;;;;;;19.84;60.04;97809.47;5112508;28;20020;-79
2023/04/21 10:15:47;;;;;;;1999.90;999.90;;;;;;;20.60;57.11;97827.53;5111287;28;20031;-79
2023/04/21 10:18:21;;;;;;;1999.90;999.90;;;;;;;21.41;54.03;97808.94;5111486;28;20015;-82
2023/04/21 10:21:07;;;;;;;1999.90;999.90;;;;;;;22.02;50.94;97822.78;5112058;28;20483;-83
2023/04/21 10:23:35;;;;;;;1999.90;999.90;;;;;;;21.01;53.96;97815.72;5118042;28;20031;-86
2023/04/21 10:26:03;;;;;;;1999.90;999.90;;;;;;;20.62;54.67;97811.28;5099455;28;20094;-85
2023/04/21 10:28:55;;;;;;;1999.90;999.90;;;;;;;20.75;54.69;97810.00;5099625;28;20042;-79
2023/04/21 10:31:27;;;;;;;1999.90;999.90;;;;;;;21.45;52.66;97810.63;5119853;28;20161;-80
2023/04/21 10:34:07;;;;;;;1999.90;999.90;;;;;;;21.69;50.68;97809.44;5136902;27;20428;-86
2023/04/21 10:36:34;;;;;;;1999.90;999.90;;;;;;;21.88;50.40;97812.16;5118776;28;20365;-81
2023/04/21 10:39:02;;;;;;;1999.90;999.90;;;;;;;22.10;49.61;97797.44;5115243;28;20127;-85
2023/04/21 10:41:33;;;;;;;1999.90;999.90;;;;;;;20.06;53.66;97792.16;5115365;28;20024;-85
2023/04/21 10:43:59;;;;;;;1999.90;999.90;;;;;;;19.58;56.58;97782.25;5115442;28;20039;-84
2023/04/21 10:46:54;;;;;;;1999.90;999.90;;;;;;;18.73;58.54;97779.16;5116687;28;20024;-81
2023/04/21 10:49:26;;;;;;;1999.90;999.90;;;;;;;19.37;56.94;97780.88;5107211;28;20046;-81
2023/04/21 10:52:04;;;;;;;1999.90;999.90;;;;;;;19.11;59.03;97776.63;5115318;28;20035;-84